sensor_id;sensor_type;location;lat;lon;timestamp;P1;durP1;ratioP1;P2;durP2;ratioP2
4517;SDS011;2271;49.464;11.070;2023-07-31T00:01:43;2.90;;;1.25;;
4517;SDS011;2271;49.464;11.070;2023-07-31T00:04:09;2.75;;;1.27;;
4517;SDS011;2271;49.464;11.070;2023-07-31T00:06:34;6.10;;;1.50;;
4517;SDS011;2271;49.464;11.070;2023-07-31T00:09:00;5.60;;;1.23;;
4517;SDS011;2271;49.464;11.070;2023-07-31T00:11:25;2.65;;;1.20;;
4517;SDS011;2271;49.464;11.070;2023-07-31T00:13:52;1.25;;;1.10;;
4517;SDS011;2271;49.464;11.070;2023-07-31T00:16:18;2.95;;;1.20;;
4517;SDS011;2271;49.464;11.070;2023-07-31T00:18:44;5.15;;;1.10;;
4517;SDS011;2271;49.464;11.070;2023-07-31T00:21:10;4.18;;;0.95;;
4517;SDS011;2271;49.464;11.070;2023-07-31T00:23:37;5.10;;;1.30;;
4517;SDS011;2271;49.464;11.070;2023-07-31T00:26:02;2.80;;;1.15;;
4517;SDS011;2271;49.464;11.070;2023-07-31T00:28:28;1.17;;;0.80;;
4517;SDS011;2271;49.464;11.070;2023-07-31T00:30:53;1.48;;;0.75;;
4517;SDS011;2271;49.464;11.070;2023-07-31T00:33:19;2.70;;;1.25;;
4517;SDS011;2271;49.464;11.070;2023-07-31T00:35:45;5.03;;;1.40;;
4517;SDS011;2271;49.464;11.070;2023-07-31T00:38:10;5.45;;;1.33;;
4517;SDS011;2271;49.464;11.070;2023-07-31T00:40:36;2.90;;;1.33;;
4517;SDS011;2271;49.464;11.070;2023-07-31T00:43:02;4.35;;;1.40;;
4517;SDS011;2271;49.464;11.070;2023-07-31T00:45:28;2.40;;;0.90;;
4517;SDS011;2271;49.464;11.070;2023-07-31T00:47:54;7.80;;;1.30;;
4517;SDS011;2271;49.464;11.070;2023-07-31T00:50:22;1.73;;;1.10;;
4517;SDS011;2271;49.464;11.070;2023-07-31T00:52:49;2.40;;;1.20;;
4517;SDS011;2271;49.464;11.070;2023-07-31T00:55:15;1.88;;;1.02;;
4517;SDS011;2271;49.464;11.070;2023-07-31T00:57:41;2.20;;;1.00;;
4517;SDS011;2271;49.464;11.070;2023-07-31T01:00:07;3.15;;;1.30;;
4517;SDS011;2271;49.464;11.070;2023-07-31T01:02:33;2.13;;;1.00;;
4517;SDS011;2271;49.464;11.070;2023-07-31T01:04:59;4.13;;;1.40;;
4517;SDS011;2271;49.464;11.070;2023-07-31T01:10:08;3.45;;;1.27;;
4517;SDS011;2271;49.464;11.070;2023-07-31T01:12:41;2.10;;;1.00;;
4517;SDS011;2271;49.464;11.070;2023-07-31T01:15:08;4.00;;;1.10;;
4517;SDS011;2271;49.464;11.070;2023-07-31T01:17:37;2.03;;;1.30;;
4517;SDS011;2271;49.464;11.070;2023-07-31T01:20:05;2.28;;;1.20;;
4517;SDS011;2271;49.464;11.070;2023-07-31T01:22:45;3.97;;;1.20;;
4517;SDS011;2271;49.464;11.070;2023-07-31T01:28:10;3.05;;;0.90;;
4517;SDS011;2271;49.464;11.070;2023-07-31T01:30:41;3.50;;;1.00;;
4517;SDS011;2271;49.464;11.070;2023-07-31T01:33:09;2.00;;;0.90;;
4517;SDS011;2271;49.464;11.070;2023-07-31T01:35:36;5.15;;;1.40;;
4517;SDS011;2271;49.464;11.070;2023-07-31T01:38:02;3.80;;;0.90;;
4517;SDS011;2271;49.464;11.070;2023-07-31T01:40:29;1.48;;;1.05;;
4517;SDS011;2271;49.464;11.070;2023-07-31T01:42:55;4.95;;;1.35;;
4517;SDS011;2271;49.464;11.070;2023-07-31T01:45:20;2.72;;;1.20;;
4517;SDS011;2271;49.464;11.070;2023-07-31T01:47:46;1.48;;;0.95;;
4517;SDS011;2271;49.464;11.070;2023-07-31T01:50:12;3.47;;;1.25;;
4517;SDS011;2271;49.464;11.070;2023-07-31T01:52:37;3.10;;;1.40;;
4517;SDS011;2271;49.464;11.070;2023-07-31T01:55:03;1.40;;;1.00;;
4517;SDS011;2271;49.464;11.070;2023-07-31T01:57:29;3.38;;;1.13;;
4517;SDS011;2271;49.464;11.070;2023-07-31T01:59:54;1.95;;;0.85;;
4517;SDS011;2271;49.464;11.070;2023-07-31T02:02:21;3.88;;;1.48;;
4517;SDS011;2271;49.464;11.070;2023-07-31T02:04:48;4.43;;;1.35;;
4517;SDS011;2271;49.464;11.070;2023-07-31T02:07:14;1.45;;;0.98;;
4517;SDS011;2271;49.464;11.070;2023-07-31T02:09:39;1.58;;;1.38;;
4517;SDS011;2271;49.464;11.070;2023-07-31T02:12:05;1.85;;;1.00;;
4517;SDS011;2271;49.464;11.070;2023-07-31T02:14:33;3.13;;;0.90;;
4517;SDS011;2271;49.464;11.070;2023-07-31T02:16:59;2.10;;;0.80;;
4517;SDS011;2271;49.464;11.070;2023-07-31T02:19:25;3.10;;;1.10;;
4517;SDS011;2271;49.464;11.070;2023-07-31T02:21:50;4.28;;;1.15;;
4517;SDS011;2271;49.464;11.070;2023-07-31T02:24:16;3.72;;;1.23;;
4517;SDS011;2271;49.464;11.070;2023-07-31T02:26:42;1.42;;;0.90;;
4517;SDS011;2271;49.464;11.070;2023-07-31T02:29:08;1.45;;;1.02;;
4517;SDS011;2271;49.464;11.070;2023-07-31T02:31:33;3.10;;;1.25;;
4517;SDS011;2271;49.464;11.070;2023-07-31T02:33:59;2.55;;;0.85;;
4517;SDS011;2271;49.464;11.070;2023-07-31T02:36:25;2.03;;;1.20;;
4517;SDS011;2271;49.464;11.070;2023-07-31T02:38:51;1.98;;;0.93;;
4517;SDS011;2271;49.464;11.070;2023-07-31T02:41:16;4.63;;;1.50;;
4517;SDS011;2271;49.464;11.070;2023-07-31T02:43:42;2.83;;;1.48;;
4517;SDS011;2271;49.464;11.070;2023-07-31T02:46:07;3.00;;;1.45;;
4517;SDS011;2271;49.464;11.070;2023-07-31T02:48:33;2.55;;;1.30;;
4517;SDS011;2271;49.464;11.070;2023-07-31T02:50:59;4.22;;;1.40;;
4517;SDS011;2271;49.464;11.070;2023-07-31T02:53:24;6.18;;;1.67;;
4517;SDS011;2271;49.464;11.070;2023-07-31T02:55:50;3.65;;;1.20;;
4517;SDS011;2271;49.464;11.070;2023-07-31T02:58:15;1.48;;;1.10;;
4517;SDS011;2271;49.464;11.070;2023-07-31T03:00:41;2.10;;;1.10;;
4517;SDS011;2271;49.464;11.070;2023-07-31T03:03:10;3.13;;;1.13;;
4517;SDS011;2271;49.464;11.070;2023-07-31T03:05:36;3.17;;;1.45;;
4517;SDS011;2271;49.464;11.070;2023-07-31T03:08:02;6.70;;;1.58;;
4517;SDS011;2271;49.464;11.070;2023-07-31T03:10:28;3.17;;;1.27;;
4517;SDS011;2271;49.464;11.070;2023-07-31T03:12:54;4.68;;;1.67;;
4517;SDS011;2271;49.464;11.070;2023-07-31T03:15:20;1.80;;;1.38;;
4517;SDS011;2271;49.464;11.070;2023-07-31T03:17:45;3.25;;;1.60;;
4517;SDS011;2271;49.464;11.070;2023-07-31T03:20:11;7.22;;;1.90;;
4517;SDS011;2271;49.464;11.070;2023-07-31T03:22:36;3.65;;;1.70;;
4517;SDS011;2271;49.464;11.070;2023-07-31T03:25:03;2.45;;;1.13;;
4517;SDS011;2271;49.464;11.070;2023-07-31T03:27:29;4.50;;;1.80;;
4517;SDS011;2271;49.464;11.070;2023-07-31T03:29:54;3.92;;;1.55;;
4517;SDS011;2271;49.464;11.070;2023-07-31T03:32:20;2.30;;;1.35;;
4517;SDS011;2271;49.464;11.070;2023-07-31T03:34:45;4.68;;;1.70;;
4517;SDS011;2271;49.464;11.070;2023-07-31T03:37:11;3.85;;;1.35;;
4517;SDS011;2271;49.464;11.070;2023-07-31T03:39:37;2.47;;;1.40;;
4517;SDS011;2271;49.464;11.070;2023-07-31T03:42:02;2.17;;;1.27;;
4517;SDS011;2271;49.464;11.070;2023-07-31T03:44:28;3.60;;;1.60;;
4517;SDS011;2271;49.464;11.070;2023-07-31T03:46:54;5.78;;;1.42;;
4517;SDS011;2271;49.464;11.070;2023-07-31T03:49:19;2.60;;;1.30;;
4517;SDS011;2271;49.464;11.070;2023-07-31T03:51:45;3.33;;;1.58;;
4517;SDS011;2271;49.464;11.070;2023-07-31T03:54:11;5.25;;;1.77;;
4517;SDS011;2271;49.464;11.070;2023-07-31T03:56:38;5.63;;;1.30;;
4517;SDS011;2271;49.464;11.070;2023-07-31T03:59:04;2.97;;;1.60;;
4517;SDS011;2271;49.464;11.070;2023-07-31T04:01:29;2.95;;;1.48;;
4517;SDS011;2271;49.464;11.070;2023-07-31T04:03:55;4.90;;;1.77;;
4517;SDS011;2271;49.464;11.070;2023-07-31T04:06:20;3.83;;;1.63;;
4517;SDS011;2271;49.464;11.070;2023-07-31T04:08:46;2.35;;;1.30;;
4517;SDS011;2271;49.464;11.070;2023-07-31T04:11:12;3.65;;;1.38;;
4517;SDS011;2271;49.464;11.070;2023-07-31T04:13:38;2.88;;;1.50;;
4517;SDS011;2271;49.464;11.070;2023-07-31T04:16:04;1.92;;;1.20;;
4517;SDS011;2271;49.464;11.070;2023-07-31T04:18:30;2.47;;;1.23;;
4517;SDS011;2271;49.464;11.070;2023-07-31T04:20:56;1.40;;;1.25;;
4517;SDS011;2271;49.464;11.070;2023-07-31T04:23:23;2.72;;;1.50;;
4517;SDS011;2271;49.464;11.070;2023-07-31T04:25:50;3.45;;;1.60;;
4517;SDS011;2271;49.464;11.070;2023-07-31T04:28:16;3.40;;;1.58;;
4517;SDS011;2271;49.464;11.070;2023-07-31T04:30:42;1.80;;;1.13;;
4517;SDS011;2271;49.464;11.070;2023-07-31T04:33:07;3.85;;;1.73;;
4517;SDS011;2271;49.464;11.070;2023-07-31T04:35:33;5.25;;;1.58;;
4517;SDS011;2271;49.464;11.070;2023-07-31T04:37:58;4.68;;;1.50;;
4517;SDS011;2271;49.464;11.070;2023-07-31T04:40:24;2.65;;;1.17;;
4517;SDS011;2271;49.464;11.070;2023-07-31T04:42:50;4.13;;;1.17;;
4517;SDS011;2271;49.464;11.070;2023-07-31T04:45:16;5.20;;;1.30;;
4517;SDS011;2271;49.464;11.070;2023-07-31T04:47:41;6.95;;;1.88;;
4517;SDS011;2271;49.464;11.070;2023-07-31T04:50:07;4.00;;;1.60;;
4517;SDS011;2271;49.464;11.070;2023-07-31T04:52:33;3.35;;;1.35;;
4517;SDS011;2271;49.464;11.070;2023-07-31T04:54:58;4.85;;;1.90;;
4517;SDS011;2271;49.464;11.070;2023-07-31T04:57:24;4.20;;;1.90;;
4517;SDS011;2271;49.464;11.070;2023-07-31T04:59:50;3.95;;;1.83;;
4517;SDS011;2271;49.464;11.070;2023-07-31T05:02:15;3.38;;;1.67;;
4517;SDS011;2271;49.464;11.070;2023-07-31T05:04:41;2.95;;;1.42;;
4517;SDS011;2271;49.464;11.070;2023-07-31T05:07:06;2.92;;;1.65;;
4517;SDS011;2271;49.464;11.070;2023-07-31T05:09:32;5.50;;;2.08;;
4517;SDS011;2271;49.464;11.070;2023-07-31T05:11:58;2.83;;;1.38;;
4517;SDS011;2271;49.464;11.070;2023-07-31T05:14:23;5.75;;;1.40;;
4517;SDS011;2271;49.464;11.070;2023-07-31T05:16:49;6.05;;;1.95;;
4517;SDS011;2271;49.464;11.070;2023-07-31T05:19:14;4.32;;;1.88;;
4517;SDS011;2271;49.464;11.070;2023-07-31T05:21:40;1.77;;;1.20;;
4517;SDS011;2271;49.464;11.070;2023-07-31T05:24:06;4.82;;;1.48;;
4517;SDS011;2271;49.464;11.070;2023-07-31T05:26:31;4.13;;;1.65;;
4517;SDS011;2271;49.464;11.070;2023-07-31T05:28:57;4.35;;;1.77;;
4517;SDS011;2271;49.464;11.070;2023-07-31T05:31:23;2.83;;;1.25;;
4517;SDS011;2271;49.464;11.070;2023-07-31T05:33:49;3.60;;;1.48;;
4517;SDS011;2271;49.464;11.070;2023-07-31T05:36:15;2.15;;;1.50;;
4517;SDS011;2271;49.464;11.070;2023-07-31T05:38:41;5.38;;;2.33;;
4517;SDS011;2271;49.464;11.070;2023-07-31T05:41:09;6.55;;;2.88;;
4517;SDS011;2271;49.464;11.070;2023-07-31T05:43:35;2.90;;;1.90;;
4517;SDS011;2271;49.464;11.070;2023-07-31T05:46:00;3.90;;;1.50;;
4517;SDS011;2271;49.464;11.070;2023-07-31T05:48:26;2.80;;;1.20;;
4517;SDS011;2271;49.464;11.070;2023-07-31T05:50:52;5.28;;;1.50;;
4517;SDS011;2271;49.464;11.070;2023-07-31T05:53:17;4.47;;;1.67;;
4517;SDS011;2271;49.464;11.070;2023-07-31T05:55:43;3.67;;;1.40;;
4517;SDS011;2271;49.464;11.070;2023-07-31T05:58:09;2.75;;;1.13;;
4517;SDS011;2271;49.464;11.070;2023-07-31T06:00:34;3.47;;;2.03;;
4517;SDS011;2271;49.464;11.070;2023-07-31T06:03:00;2.97;;;1.83;;
4517;SDS011;2271;49.464;11.070;2023-07-31T06:05:25;2.78;;;1.50;;
4517;SDS011;2271;49.464;11.070;2023-07-31T06:07:53;5.38;;;1.40;;
4517;SDS011;2271;49.464;11.070;2023-07-31T06:10:18;4.68;;;1.58;;
4517;SDS011;2271;49.464;11.070;2023-07-31T06:12:44;3.75;;;1.70;;
4517;SDS011;2271;49.464;11.070;2023-07-31T06:15:10;4.97;;;1.38;;
4517;SDS011;2271;49.464;11.070;2023-07-31T06:17:36;2.75;;;1.30;;
4517;SDS011;2271;49.464;11.070;2023-07-31T06:20:01;7.93;;;1.48;;
4517;SDS011;2271;49.464;11.070;2023-07-31T06:22:30;4.13;;;1.60;;
4517;SDS011;2271;49.464;11.070;2023-07-31T06:24:56;4.97;;;1.52;;
4517;SDS011;2271;49.464;11.070;2023-07-31T06:27:22;2.95;;;1.55;;
4517;SDS011;2271;49.464;11.070;2023-07-31T06:29:47;5.78;;;1.70;;
4517;SDS011;2271;49.464;11.070;2023-07-31T06:32:13;3.97;;;1.58;;
4517;SDS011;2271;49.464;11.070;2023-07-31T06:34:39;1.58;;;1.10;;
4517;SDS011;2271;49.464;11.070;2023-07-31T06:37:04;2.30;;;1.02;;
4517;SDS011;2271;49.464;11.070;2023-07-31T06:39:30;3.05;;;1.50;;
4517;SDS011;2271;49.464;11.070;2023-07-31T06:41:56;5.78;;;1.30;;
4517;SDS011;2271;49.464;11.070;2023-07-31T06:44:21;3.05;;;1.50;;
4517;SDS011;2271;49.464;11.070;2023-07-31T06:46:47;5.03;;;1.70;;
4517;SDS011;2271;49.464;11.070;2023-07-31T06:49:13;4.88;;;1.65;;
4517;SDS011;2271;49.464;11.070;2023-07-31T06:51:40;3.65;;;1.55;;
4517;SDS011;2271;49.464;11.070;2023-07-31T06:54:06;5.68;;;1.63;;
4517;SDS011;2271;49.464;11.070;2023-07-31T06:56:32;3.35;;;1.45;;
4517;SDS011;2271;49.464;11.070;2023-07-31T06:58:58;1.55;;;1.20;;
4517;SDS011;2271;49.464;11.070;2023-07-31T07:01:24;3.83;;;1.38;;
4517;SDS011;2271;49.464;11.070;2023-07-31T07:03:49;1.98;;;1.25;;
4517;SDS011;2271;49.464;11.070;2023-07-31T07:06:18;3.35;;;1.60;;
4517;SDS011;2271;49.464;11.070;2023-07-31T07:08:43;3.70;;;1.77;;
4517;SDS011;2271;49.464;11.070;2023-07-31T07:11:09;2.15;;;1.40;;
4517;SDS011;2271;49.464;11.070;2023-07-31T07:13:35;1.42;;;1.00;;
4517;SDS011;2271;49.464;11.070;2023-07-31T07:16:00;5.13;;;1.17;;
4517;SDS011;2271;49.464;11.070;2023-07-31T07:18:26;3.65;;;1.88;;
4517;SDS011;2271;49.464;11.070;2023-07-31T07:20:52;4.50;;;2.05;;
4517;SDS011;2271;49.464;11.070;2023-07-31T07:23:19;5.20;;;2.30;;
4517;SDS011;2271;49.464;11.070;2023-07-31T07:25:46;3.90;;;1.40;;
4517;SDS011;2271;49.464;11.070;2023-07-31T07:28:12;4.22;;;1.45;;
4517;SDS011;2271;49.464;11.070;2023-07-31T07:30:39;2.13;;;1.80;;
4517;SDS011;2271;49.464;11.070;2023-07-31T07:33:04;4.60;;;1.88;;
4517;SDS011;2271;49.464;11.070;2023-07-31T07:35:33;2.20;;;1.45;;
4517;SDS011;2271;49.464;11.070;2023-07-31T07:37:59;3.47;;;1.52;;
4517;SDS011;2271;49.464;11.070;2023-07-31T07:40:25;2.42;;;2.17;;
4517;SDS011;2271;49.464;11.070;2023-07-31T07:42:51;2.78;;;1.65;;
4517;SDS011;2271;49.464;11.070;2023-07-31T07:45:17;5.10;;;1.70;;
4517;SDS011;2271;49.464;11.070;2023-07-31T07:47:42;5.28;;;1.50;;
4517;SDS011;2271;49.464;11.070;2023-07-31T07:50:08;3.83;;;1.52;;
4517;SDS011;2271;49.464;11.070;2023-07-31T07:52:34;3.38;;;1.60;;
4517;SDS011;2271;49.464;11.070;2023-07-31T07:54:59;4.35;;;2.05;;
4517;SDS011;2271;49.464;11.070;2023-07-31T07:57:25;5.57;;;1.85;;
4517;SDS011;2271;49.464;11.070;2023-07-31T07:59:51;3.58;;;1.80;;
4517;SDS011;2271;49.464;11.070;2023-07-31T08:02:17;4.68;;;1.42;;
4517;SDS011;2271;49.464;11.070;2023-07-31T08:04:43;5.82;;;1.88;;
4517;SDS011;2271;49.464;11.070;2023-07-31T08:07:10;2.53;;;1.40;;
4517;SDS011;2271;49.464;11.070;2023-07-31T08:09:40;3.45;;;1.65;;
4517;SDS011;2271;49.464;11.070;2023-07-31T08:12:06;2.70;;;1.50;;
4517;SDS011;2271;49.464;11.070;2023-07-31T08:14:32;4.82;;;1.70;;
4517;SDS011;2271;49.464;11.070;2023-07-31T08:16:59;6.22;;;1.80;;
4517;SDS011;2271;49.464;11.070;2023-07-31T08:19:25;2.25;;;1.60;;
4517;SDS011;2271;49.464;11.070;2023-07-31T08:21:51;4.28;;;1.50;;
4517;SDS011;2271;49.464;11.070;2023-07-31T08:24:17;2.47;;;1.40;;
4517;SDS011;2271;49.464;11.070;2023-07-31T08:26:42;4.45;;;1.92;;
4517;SDS011;2271;49.464;11.070;2023-07-31T08:29:08;4.18;;;1.38;;
4517;SDS011;2271;49.464;11.070;2023-07-31T08:31:34;5.10;;;2.15;;
4517;SDS011;2271;49.464;11.070;2023-07-31T08:34:00;7.00;;;1.73;;
4517;SDS011;2271;49.464;11.070;2023-07-31T08:36:25;2.10;;;1.45;;
4517;SDS011;2271;49.464;11.070;2023-07-31T08:38:51;2.30;;;1.33;;
4517;SDS011;2271;49.464;11.070;2023-07-31T08:41:17;6.65;;;1.95;;
4517;SDS011;2271;49.464;11.070;2023-07-31T08:43:43;2.08;;;1.45;;
4517;SDS011;2271;49.464;11.070;2023-07-31T08:46:14;5.35;;;1.50;;
4517;SDS011;2271;49.464;11.070;2023-07-31T08:48:41;3.70;;;1.75;;
4517;SDS011;2271;49.464;11.070;2023-07-31T08:51:07;6.43;;;1.80;;
4517;SDS011;2271;49.464;11.070;2023-07-31T08:53:33;4.28;;;1.95;;
4517;SDS011;2271;49.464;11.070;2023-07-31T08:55:59;2.92;;;1.30;;
4517;SDS011;2271;49.464;11.070;2023-07-31T08:58:25;4.75;;;1.92;;
4517;SDS011;2271;49.464;11.070;2023-07-31T09:00:55;7.47;;;1.67;;
4517;SDS011;2271;49.464;11.070;2023-07-31T09:03:23;2.70;;;1.40;;
4517;SDS011;2271;49.464;11.070;2023-07-31T09:05:51;1.52;;;1.33;;
4517;SDS011;2271;49.464;11.070;2023-07-31T09:08:19;3.35;;;1.73;;
4517;SDS011;2271;49.464;11.070;2023-07-31T09:10:46;3.05;;;1.73;;
4517;SDS011;2271;49.464;11.070;2023-07-31T09:13:15;2.63;;;1.58;;
4517;SDS011;2271;49.464;11.070;2023-07-31T09:15:45;3.10;;;1.40;;
4517;SDS011;2271;49.464;11.070;2023-07-31T09:18:11;2.85;;;1.60;;
4517;SDS011;2271;49.464;11.070;2023-07-31T09:20:37;4.40;;;1.75;;
4517;SDS011;2271;49.464;11.070;2023-07-31T09:25:35;2.58;;;1.30;;
4517;SDS011;2271;49.464;11.070;2023-07-31T09:28:06;2.42;;;1.80;;
4517;SDS011;2271;49.464;11.070;2023-07-31T09:33:17;2.22;;;1.23;;
4517;SDS011;2271;49.464;11.070;2023-07-31T09:35:43;3.28;;;1.48;;
4517;SDS011;2271;49.464;11.070;2023-07-31T09:38:10;3.08;;;1.70;;
4517;SDS011;2271;49.464;11.070;2023-07-31T09:40:38;2.53;;;1.38;;
4517;SDS011;2271;49.464;11.070;2023-07-31T09:43:06;2.78;;;1.40;;
4517;SDS011;2271;49.464;11.070;2023-07-31T09:45:43;3.38;;;1.80;;
4517;SDS011;2271;49.464;11.070;2023-07-31T09:48:10;2.55;;;1.65;;
4517;SDS011;2271;49.464;11.070;2023-07-31T09:50:43;4.07;;;1.70;;
4517;SDS011;2271;49.464;11.070;2023-07-31T09:53:11;1.63;;;1.10;;
4517;SDS011;2271;49.464;11.070;2023-07-31T09:55:37;3.97;;;1.50;;
4517;SDS011;2271;49.464;11.070;2023-07-31T09:58:04;3.20;;;2.15;;
4517;SDS011;2271;49.464;11.070;2023-07-31T10:00:31;6.15;;;2.17;;
4517;SDS011;2271;49.464;11.070;2023-07-31T10:03:00;3.28;;;1.77;;
4517;SDS011;2271;49.464;11.070;2023-07-31T10:08:30;2.25;;;1.42;;
4517;SDS011;2271;49.464;11.070;2023-07-31T10:11:00;1.77;;;1.27;;
4517;SDS011;2271;49.464;11.070;2023-07-31T10:13:27;4.20;;;1.48;;
4517;SDS011;2271;49.464;11.070;2023-07-31T10:15:54;2.85;;;1.73;;
4517;SDS011;2271;49.464;11.070;2023-07-31T10:18:25;2.75;;;1.90;;
4517;SDS011;2271;49.464;11.070;2023-07-31T10:20:52;3.92;;;1.75;;
4517;SDS011;2271;49.464;11.070;2023-07-31T10:23:19;2.10;;;1.40;;
4517;SDS011;2271;49.464;11.070;2023-07-31T10:25:45;1.90;;;1.70;;
4517;SDS011;2271;49.464;11.070;2023-07-31T10:28:12;2.65;;;1.70;;
4517;SDS011;2271;49.464;11.070;2023-07-31T10:30:38;2.85;;;1.25;;
4517;SDS011;2271;49.464;11.070;2023-07-31T10:33:04;3.00;;;1.40;;
4517;SDS011;2271;49.464;11.070;2023-07-31T10:35:30;2.47;;;1.20;;
4517;SDS011;2271;49.464;11.070;2023-07-31T10:37:56;7.93;;;1.60;;
4517;SDS011;2271;49.464;11.070;2023-07-31T10:40:38;2.72;;;1.70;;
4517;SDS011;2271;49.464;11.070;2023-07-31T10:43:04;3.30;;;1.85;;
4517;SDS011;2271;49.464;11.070;2023-07-31T10:50:29;1.95;;;1.30;;
4517;SDS011;2271;49.464;11.070;2023-07-31T10:52:57;2.53;;;1.35;;
4517;SDS011;2271;49.464;11.070;2023-07-31T10:58:09;2.55;;;1.52;;
4517;SDS011;2271;49.464;11.070;2023-07-31T11:00:42;4.38;;;1.23;;
4517;SDS011;2271;49.464;11.070;2023-07-31T11:03:15;5.45;;;1.80;;
4517;SDS011;2271;49.464;11.070;2023-07-31T11:05:43;2.58;;;1.63;;
4517;SDS011;2271;49.464;11.070;2023-07-31T11:08:19;3.50;;;1.52;;
4517;SDS011;2271;49.464;11.070;2023-07-31T11:10:46;3.33;;;1.73;;
4517;SDS011;2271;49.464;11.070;2023-07-31T11:13:13;2.28;;;1.50;;
4517;SDS011;2271;49.464;11.070;2023-07-31T11:15:39;2.17;;;1.58;;
4517;SDS011;2271;49.464;11.070;2023-07-31T11:18:05;2.42;;;1.60;;
4517;SDS011;2271;49.464;11.070;2023-07-31T11:20:31;3.47;;;1.42;;
4517;SDS011;2271;49.464;11.070;2023-07-31T11:23:01;4.00;;;1.48;;
4517;SDS011;2271;49.464;11.070;2023-07-31T11:25:28;8.20;;;2.05;;
4517;SDS011;2271;49.464;11.070;2023-07-31T11:27:55;3.40;;;2.00;;
4517;SDS011;2271;49.464;11.070;2023-07-31T11:30:21;2.85;;;1.63;;
4517;SDS011;2271;49.464;11.070;2023-07-31T11:32:47;4.30;;;1.90;;
4517;SDS011;2271;49.464;11.070;2023-07-31T11:35:12;3.55;;;1.80;;
4517;SDS011;2271;49.464;11.070;2023-07-31T11:37:39;3.28;;;2.08;;
4517;SDS011;2271;49.464;11.070;2023-07-31T11:40:06;3.40;;;2.00;;
4517;SDS011;2271;49.464;11.070;2023-07-31T11:42:32;3.75;;;1.92;;
4517;SDS011;2271;49.464;11.070;2023-07-31T11:44:57;2.78;;;2.05;;
4517;SDS011;2271;49.464;11.070;2023-07-31T11:47:23;2.08;;;1.67;;
4517;SDS011;2271;49.464;11.070;2023-07-31T11:49:51;2.80;;;1.90;;
4517;SDS011;2271;49.464;11.070;2023-07-31T11:52:17;3.25;;;1.70;;
4517;SDS011;2271;49.464;11.070;2023-07-31T11:54:45;2.95;;;1.75;;
4517;SDS011;2271;49.464;11.070;2023-07-31T11:57:11;3.95;;;1.83;;
4517;SDS011;2271;49.464;11.070;2023-07-31T11:59:38;4.70;;;1.88;;
4517;SDS011;2271;49.464;11.070;2023-07-31T12:02:04;2.63;;;1.83;;
4517;SDS011;2271;49.464;11.070;2023-07-31T12:04:30;4.88;;;2.45;;
4517;SDS011;2271;49.464;11.070;2023-07-31T12:06:56;4.47;;;2.08;;
4517;SDS011;2271;49.464;11.070;2023-07-31T12:09:24;3.92;;;1.95;;
4517;SDS011;2271;49.464;11.070;2023-07-31T12:11:51;4.97;;;1.98;;
4517;SDS011;2271;49.464;11.070;2023-07-31T12:14:20;3.35;;;2.55;;
4517;SDS011;2271;49.464;11.070;2023-07-31T12:16:47;4.97;;;2.13;;
4517;SDS011;2271;49.464;11.070;2023-07-31T12:19:13;3.03;;;1.90;;
4517;SDS011;2271;49.464;11.070;2023-07-31T12:21:38;2.65;;;1.98;;
4517;SDS011;2271;49.464;11.070;2023-07-31T12:24:04;4.22;;;2.00;;
4517;SDS011;2271;49.464;11.070;2023-07-31T12:26:36;4.10;;;2.00;;
4517;SDS011;2271;49.464;11.070;2023-07-31T12:29:01;2.80;;;1.90;;
4517;SDS011;2271;49.464;11.070;2023-07-31T12:31:27;5.47;;;2.25;;
4517;SDS011;2271;49.464;11.070;2023-07-31T12:33:55;2.83;;;1.92;;
4517;SDS011;2271;49.464;11.070;2023-07-31T12:36:21;2.55;;;1.70;;
4517;SDS011;2271;49.464;11.070;2023-07-31T12:38:49;4.20;;;1.80;;
4517;SDS011;2271;49.464;11.070;2023-07-31T12:41:16;3.90;;;1.90;;
4517;SDS011;2271;49.464;11.070;2023-07-31T12:43:42;4.10;;;2.28;;
4517;SDS011;2271;49.464;11.070;2023-07-31T12:46:08;7.90;;;2.03;;
4517;SDS011;2271;49.464;11.070;2023-07-31T12:48:34;7.40;;;1.80;;
4517;SDS011;2271;49.464;11.070;2023-07-31T12:51:01;5.10;;;1.98;;
4517;SDS011;2271;49.464;11.070;2023-07-31T12:53:27;2.90;;;1.83;;
4517;SDS011;2271;49.464;11.070;2023-07-31T12:55:53;3.80;;;1.80;;
4517;SDS011;2271;49.464;11.070;2023-07-31T12:58:19;8.98;;;2.55;;
4517;SDS011;2271;49.464;11.070;2023-07-31T13:00:45;5.07;;;2.13;;
4517;SDS011;2271;49.464;11.070;2023-07-31T13:03:10;3.78;;;2.00;;
4517;SDS011;2271;49.464;11.070;2023-07-31T13:05:36;2.88;;;1.70;;
4517;SDS011;2271;49.464;11.070;2023-07-31T13:08:02;5.32;;;2.20;;
4517;SDS011;2271;49.464;11.070;2023-07-31T13:10:27;4.72;;;2.08;;
4517;SDS011;2271;49.464;11.070;2023-07-31T13:12:54;4.57;;;1.70;;
4517;SDS011;2271;49.464;11.070;2023-07-31T13:15:21;6.50;;;2.42;;
4517;SDS011;2271;49.464;11.070;2023-07-31T13:17:46;2.35;;;1.45;;
4517;SDS011;2271;49.464;11.070;2023-07-31T13:20:12;2.85;;;1.88;;
4517;SDS011;2271;49.464;11.070;2023-07-31T13:22:38;5.05;;;1.90;;
4517;SDS011;2271;49.464;11.070;2023-07-31T13:25:03;2.35;;;1.85;;
4517;SDS011;2271;49.464;11.070;2023-07-31T13:27:30;4.72;;;2.03;;
4517;SDS011;2271;49.464;11.070;2023-07-31T13:29:55;3.55;;;2.40;;
4517;SDS011;2271;49.464;11.070;2023-07-31T13:32:21;7.47;;;2.20;;
4517;SDS011;2271;49.464;11.070;2023-07-31T13:34:47;2.92;;;2.20;;
4517;SDS011;2271;49.464;11.070;2023-07-31T13:37:13;4.30;;;2.10;;
4517;SDS011;2271;49.464;11.070;2023-07-31T13:39:40;2.33;;;1.90;;
4517;SDS011;2271;49.464;11.070;2023-07-31T13:42:07;5.10;;;2.13;;
4517;SDS011;2271;49.464;11.070;2023-07-31T13:44:34;2.53;;;1.70;;
4517;SDS011;2271;49.464;11.070;2023-07-31T13:47:00;2.80;;;2.00;;
4517;SDS011;2271;49.464;11.070;2023-07-31T13:49:26;3.30;;;1.70;;
4517;SDS011;2271;49.464;11.070;2023-07-31T13:51:52;3.10;;;2.10;;
4517;SDS011;2271;49.464;11.070;2023-07-31T13:54:18;3.00;;;1.85;;
4517;SDS011;2271;49.464;11.070;2023-07-31T13:56:44;3.03;;;2.33;;
4517;SDS011;2271;49.464;11.070;2023-07-31T13:59:10;3.33;;;1.38;;
4517;SDS011;2271;49.464;11.070;2023-07-31T14:01:36;5.80;;;1.77;;
4517;SDS011;2271;49.464;11.070;2023-07-31T14:04:01;2.75;;;2.40;;
4517;SDS011;2271;49.464;11.070;2023-07-31T14:06:27;4.72;;;2.08;;
4517;SDS011;2271;49.464;11.070;2023-07-31T14:08:53;4.15;;;1.95;;
4517;SDS011;2271;49.464;11.070;2023-07-31T14:11:18;2.35;;;1.85;;
4517;SDS011;2271;49.464;11.070;2023-07-31T14:13:44;7.32;;;1.77;;
4517;SDS011;2271;49.464;11.070;2023-07-31T14:16:10;2.47;;;1.60;;
4517;SDS011;2271;49.464;11.070;2023-07-31T14:18:35;3.28;;;1.63;;
4517;SDS011;2271;49.464;11.070;2023-07-31T14:21:01;3.10;;;2.10;;
4517;SDS011;2271;49.464;11.070;2023-07-31T14:23:26;3.92;;;2.22;;
4517;SDS011;2271;49.464;11.070;2023-07-31T14:25:52;2.53;;;1.90;;
4517;SDS011;2271;49.464;11.070;2023-07-31T14:28:18;5.80;;;2.20;;
4517;SDS011;2271;49.464;11.070;2023-07-31T14:30:43;3.35;;;2.47;;
4517;SDS011;2271;49.464;11.070;2023-07-31T14:33:09;3.53;;;1.83;;
4517;SDS011;2271;49.464;11.070;2023-07-31T14:35:34;4.07;;;2.08;;
4517;SDS011;2271;49.464;11.070;2023-07-31T14:38:00;3.88;;;2.10;;
4517;SDS011;2271;49.464;11.070;2023-07-31T14:40:26;7.32;;;2.63;;
4517;SDS011;2271;49.464;11.070;2023-07-31T14:42:52;5.80;;;2.25;;
4517;SDS011;2271;49.464;11.070;2023-07-31T14:45:18;6.00;;;2.10;;
4517;SDS011;2271;49.464;11.070;2023-07-31T14:47:43;2.95;;;1.90;;
4517;SDS011;2271;49.464;11.070;2023-07-31T14:50:09;4.22;;;2.35;;
4517;SDS011;2271;49.464;11.070;2023-07-31T14:52:35;3.20;;;2.17;;
4517;SDS011;2271;49.464;11.070;2023-07-31T14:55:01;4.38;;;2.42;;
4517;SDS011;2271;49.464;11.070;2023-07-31T14:57:26;6.88;;;2.65;;
4517;SDS011;2271;49.464;11.070;2023-07-31T14:59:52;3.63;;;1.67;;
4517;SDS011;2271;49.464;11.070;2023-07-31T15:02:18;6.32;;;2.15;;
4517;SDS011;2271;49.464;11.070;2023-07-31T15:04:43;5.65;;;2.08;;
4517;SDS011;2271;49.464;11.070;2023-07-31T15:07:09;3.92;;;1.88;;
4517;SDS011;2271;49.464;11.070;2023-07-31T15:09:35;3.47;;;1.90;;
4517;SDS011;2271;49.464;11.070;2023-07-31T15:12:00;4.53;;;2.17;;
4517;SDS011;2271;49.464;11.070;2023-07-31T15:14:26;3.95;;;2.20;;
4517;SDS011;2271;49.464;11.070;2023-07-31T15:16:56;4.93;;;2.53;;